Main page
METAR-TAF:

METAR-TAF

Airports :

Farnborough Airport

Farnborough, England

latitude: 51-17N, longitude: 000-46W, elevation: 65 m

Current weather observation

The report was made 4 hours and 34 minutes ago, at 20:20 UTC
Wind 7 kt from the North
Temperature 18°C
Humidity 45%
Pressure 1029 hPa
Visibility 10 km or more
no clouds below 1500 m and no cumulonimbus

METAR: EGLF 222020Z 35007KT CAVOK 18/06 Q1029

Time: 01:54 (00:54 UTC)

Forecast

The report was made 7 hours and 49 minutes ago, at 17:05 UTC
Forecast valid from 22 at 18 UTC to 22 at 21 UTC
Wind 6 kt from the Northeast
Visibility 10 km or more
Few clouds at a height of 3500 ft

TAF: EGLF 221705Z 2218/2221 04006KT 9999 FEW035

Weather observations and forecasts of more than 4000 airports (METAR and TAF reports).

The available stations are represented by yellow and red dots on the map.

Hover mouse over dot to see the name of the station.

Then click to see weather observations and forecasts.

To change the map : click on the green buttons with a black cross to zoom in, on the green button with a dash to zoom out, or on the green arrows for adjacent maps.


METAR-TAF: